Time;durP1;ratioP1;P1;durP2;ratioP2;P2;SDS_P1;SDS_P2;PMS_P1;PMS_P2;Temp;Humidity;BMP_temperature;BMP_pressure;BME280_temperature;BME280_humidity;BME280_pressure;Samples;Min_cycle;Max_cycle;Signal;HPM_P1;HPM_P2
2022/10/25 00:02:43;;;;;;;;;;;;;;;;;;;;;
2022/10/25 00:28:00;;;;;;;3.40;1.15;;;;;;;;;;5919840;24;20036;-89
2022/10/25 00:49:05;;;;;;;2.90;1.00;;;;;;;;;;5808571;24;20019;-88
2022/10/25 01:01:02;;;;;;;1.10;1.00;;;;;;;;;;6084043;23;20037;-90
2022/10/25 01:05:01;;;;;;;4.38;1.17;;;;;;;;;;6009472;23;20031;-89
2022/10/25 01:17:22;;;;;;;4.15;1.35;;;;;;;;;;6039578;23;20026;-89
2022/10/25 01:29:25;;;;;;;;;;;;;;;;;;;;;
2022/10/25 01:42:33;;;;;;;;;;;;;;;;;;;;;
2022/10/25 02:09:11;;;;;;;2.05;1.15;;;;;;;;;;6015744;23;20020;-90
2022/10/25 02:32:33;;;;;;;;;;;;;;;;;;5829735;24;20022;-89
2022/10/25 03:36:41;;;;;;;;;;;;;;;;;;;;;
2022/10/25 04:30:56;;;;;;;1.58;1.48;;;;;;;;;;6055067;23;20463;-89
2022/10/25 06:22:03;;;;;;;1.63;1.52;;;;;;;;;;6011800;23;20032;-88
2022/10/25 06:24:55;;;;;;;;;;;;;;;;;;;;;
2022/10/25 06:27:36;;;;;;;6.13;2.55;;;;;;;;;;5934481;24;20125;-87
2022/10/25 06:31:04;;;;;;;1.60;1.50;;;;;;;;;;5913123;24;20032;-87
2022/10/25 06:34:28;;;;;;;;;;;;;;;;;;;;;
2022/10/25 06:38:53;;;;;;;4.65;3.55;;;;;;;;;;5865469;24;20018;-87
2022/10/25 06:43:30;;;;;;;3.20;2.95;;;;;;;;;;5835002;24;20037;-90
2022/10/25 06:47:01;;;;;;;21.70;5.50;;;;;;;;;;5903796;24;20025;-88
2022/10/25 06:50:46;;;;;;;7.32;3.70;;;;;;;;;;5850044;24;20034;-89
2022/10/25 06:53:42;;;;;;;7.18;3.45;;;;;;;;;;5852543;24;20007;-90
2022/10/25 06:56:11;;;;;;;6.53;3.72;;;;;;;;;;5881994;24;20030;-90
2022/10/25 06:59:01;;;;;;;2.42;2.00;;;;;;;;;;5878547;24;20034;-88
2022/10/25 07:01:38;;;;;;;3.67;2.08;;;;;;;;;;5878591;24;20018;-88
2022/10/25 07:04:26;;;;;;;1.70;1.60;;;;;;;;;;5905251;24;20327;-89
2022/10/25 07:07:52;;;;;;;2.92;1.67;;;;;;;;;;5925321;23;20468;-88
2022/10/25 07:11:50;;;;;;;;;;;;;;;;;;;;;
2022/10/25 09:42:22;;;;;;;1.55;1.42;;;;;;;;;;5947700;24;20025;-90
2022/10/25 10:03:54;;;;;;;1.70;1.60;;;;;;;;;;5841342;24;20034;-89
2022/10/25 10:25:46;;;;;;;1.65;1.45;;;;;;;;;;5945011;24;20028;-90
2022/10/25 10:28:30;;;;;;;7.15;1.98;;;;;;;;;;5949568;24;20032;-90
2022/10/25 10:31:19;;;;;;;2.95;1.75;;;;;;;;;;5943329;24;20028;-91
2022/10/25 10:34:35;;;;;;;1.58;1.48;;;;;;;;;;5980211;24;20020;-90
2022/10/25 10:37:48;;;;;;;1.83;1.13;;;;;;;;;;5958811;23;20356;-90
2022/10/25 10:40:29;;;;;;;2.00;1.88;;;;;;;;;;5957324;23;20050;-91
2022/10/25 10:43:42;;;;;;;2.88;2.53;;;;;;;;;;6015574;23;20110;-90
2022/10/25 10:46:13;;;;;;;2.17;2.00;;;;;;;;;;6043474;23;20023;-90
2022/10/25 10:49:18;;;;;;;2.13;1.77;;;;;;;;;;6032933;23;20025;-92
2022/10/25 10:52:38;;;;;;;1.70;1.60;;;;;;;;;;6054898;23;20026;-88
2022/10/25 10:59:27;;;;;;;1.05;1.05;;;;;;;;;;6044289;23;20338;-92
2022/10/25 11:02:17;;;;;;;1.70;1.60;;;;;;;;;;6027967;23;20014;-88
2022/10/25 11:04:50;;;;;;;2.67;2.20;;;;;;;;;;6026214;23;20014;-89
2022/10/25 11:07:28;;;;;;;2.08;1.98;;;;;;;;;;6046887;23;20022;-87
2022/10/25 11:10:18;;;;;;;3.33;1.77;;;;;;;;;;6082913;23;20022;-88
2022/10/25 11:13:03;;;;;;;3.42;2.53;;;;;;;;;;6024731;23;20027;-89
2022/10/25 11:15:45;;;;;;;1.52;1.42;;;;;;;;;;6024328;23;20083;-87
2022/10/25 11:18:14;;;;;;;1.88;1.35;;;;;;;;;;6047552;23;20349;-89
2022/10/25 11:21:23;;;;;;;1.27;1.17;;;;;;;;;;6072387;23;20025;-90
2022/10/25 11:24:49;;;;;;;1.90;1.25;;;;;;;;;;6012959;23;20030;-91
2022/10/25 11:27:23;;;;;;;1.38;1.20;;;;;;;;;;6043795;23;20029;-89
2022/10/25 11:30:15;;;;;;;2.88;1.60;;;;;;;;;;6026311;23;20022;-89
2022/10/25 11:34:13;;;;;;;3.67;1.40;;;;;;;;;;5933601;24;20032;-90
2022/10/25 11:36:58;;;;;;;4.03;1.15;;;;;;;;;;5895403;24;20134;-89
2022/10/25 11:39:53;;;;;;;2.30;1.65;;;;;;;;;;5952479;24;20021;-88
2022/10/25 11:42:29;;;;;;;2.05;0.98;;;;;;;;;;5960731;24;20427;-88
2022/10/25 11:45:05;;;;;;;3.75;0.90;;;;;;;;;;5962939;24;20017;-88
2022/10/25 11:50:53;;;;;;;0.93;0.75;;;;;;;;;;5906209;24;20032;-89
2022/10/25 11:57:07;;;;;;;1.65;1.02;;;;;;;;;;6119659;23;20034;-90
2022/10/25 12:04:14;;;;;;;5.75;1.50;;;;;;;;;;6056916;23;20027;-90
2022/10/25 12:07:05;;;;;;;5.47;1.23;;;;;;;;;;6080623;23;20354;-81
2022/10/25 12:09:53;;;;;;;1.90;1.00;;;;;;;;;;6136492;23;20018;-81
2022/10/25 12:12:27;;;;;;;4.57;1.05;;;;;;;;;;6126038;23;20022;-81
2022/10/25 12:15:05;;;;;;;2.22;1.23;;;;;;;;;;6106140;23;20342;-81
2022/10/25 12:17:34;;;;;;;1.45;0.80;;;;;;;;;;6136273;23;20334;-81
2022/10/25 12:20:09;;;;;;;0.55;0.55;;;;;;;;;;6113692;23;20029;-80
2022/10/25 12:22:54;;;;;;;11.27;1.70;;;;;;;;;;6133383;23;20022;-80
2022/10/25 12:25:28;;;;;;;1.88;0.60;;;;;;;;;;6136339;23;20438;-80
2022/10/25 12:28:15;;;;;;;3.55;1.10;;;;;;;;;;6126343;23;20041;-82
2022/10/25 12:31:17;;;;;;;0.65;0.63;;;;;;;;;;6081522;23;20029;-81
2022/10/25 12:33:50;;;;;;;0.70;0.70;;;;;;;;;;6076713;23;20451;-81
2022/10/25 12:36:23;;;;;;;1.50;0.80;;;;;;;;;;6101313;23;20470;-80
2022/10/25 12:38:50;;;;;;;0.65;0.65;;;;;;;;;;6132602;23;20018;-81
2022/10/25 12:41:24;;;;;;;0.60;0.60;;;;;;;;;;6110355;23;20334;-81
2022/10/25 12:44:15;;;;;;;2.58;1.45;;;;;;;;;;6103554;23;20018;-81
2022/10/25 12:46:42;;;;;;;2.33;1.15;;;;;;;;;;6132844;23;20496;-81
2022/10/25 12:49:39;;;;;;;0.68;0.55;;;;;;;;;;6077241;23;20014;-87
2022/10/25 12:52:52;;;;;;;;;;;;;;;;;;;;;
2022/10/25 13:00:45;;;;;;;4.18;1.05;;;;;;;;;;6048983;23;20025;-89
2022/10/25 13:08:11;;;;;;;3.88;1.23;;;;;;;;;;6026207;23;20018;-90
2022/10/25 13:11:10;;;;;;;2.10;1.95;;;;;;;;;;6080272;23;20045;-90
2022/10/25 13:13:54;;;;;;;0.80;0.80;;;;;;;;;;6078072;23;20453;-90
2022/10/25 13:16:48;;;;;;;1.75;0.80;;;;;;;;;;6068835;23;20049;-90
2022/10/25 13:19:36;;;;;;;1.42;0.77;;;;;;;;;;6077389;23;20025;-90
2022/10/25 13:22:37;;;;;;;2.53;0.85;;;;;;;;;;6099682;23;20010;-89
2022/10/25 13:29:28;;;;;;;1.67;0.70;;;;;;;;;;6086866;23;20025;-91
2022/10/25 13:32:03;;;;;;;3.60;0.90;;;;;;;;;;6110064;23;20021;-91
2022/10/25 13:34:44;;;;;;;1.75;0.85;;;;;;;;;;6126738;23;20046;-91
2022/10/25 13:37:44;;;;;;;3.25;1.13;;;;;;;;;;6106177;23;20017;-90
2022/10/25 13:40:26;;;;;;;1.75;0.80;;;;;;;;;;6097187;23;20018;-91
2022/10/25 13:42:59;;;;;;;1.23;1.13;;;;;;;;;;6100149;23;20014;-91
2022/10/25 13:46:02;;;;;;;1.95;1.83;;;;;;;;;;6081952;23;20014;-91
2022/10/25 15:04:09;;;;;;;1.58;1.02;;;;;;;;;;6089155;23;20025;-89
2022/10/25 15:07:27;;;;;;;1.08;0.77;;;;;;;;;;6036864;23;20026;-89
2022/10/25 15:10:43;;;;;;;11.68;2.60;;;;;;;;;;6042813;23;20891;-89
2022/10/25 15:13:52;;;;;;;6.15;1.05;;;;;;;;;;6056544;23;20023;-88
2022/10/25 15:16:29;;;;;;;1.85;1.27;;;;;;;;;;6024736;23;20030;-88
2022/10/25 15:19:06;;;;;;;1.08;0.98;;;;;;;;;;6047692;23;20027;-87
2022/10/25 15:21:43;;;;;;;2.20;1.25;;;;;;;;;;6027573;23;20022;-89
2022/10/25 15:30:15;;;;;;;1.60;1.50;;;;;;;;;;6119287;23;20320;-88
2022/10/25 15:38:46;;;;;;;;;;;;;;;;;;;;;
2022/10/25 15:47:20;;;;;;;2.92;1.20;;;;;;;;;;5959295;23;20068;-88
2022/10/25 15:51:32;;;;;;;;;;;;;;;;;;;;;
2022/10/25 15:55:24;;;;;;;4.93;0.85;;;;;;;;;;5993498;23;20028;-86
2022/10/25 15:59:11;;;;;;;2.00;0.70;;;;;;;;;;5932089;23;20666;-86
2022/10/25 16:03:10;;;;;;;1.30;0.70;;;;;;;;;;5853054;24;20222;-85
2022/10/25 16:06:59;;;;;;;2.35;0.90;;;;;;;;;;5934675;24;20049;-86
2022/10/25 16:15:58;;;;;;;;;;;;;;;;;;;;;
2022/10/25 16:20:50;;;;;;;;;;;;;;;;;;;;;
2022/10/25 16:24:34;;;;;;;7.35;2.33;;;;;;;;;;5824241;24;20408;-84
2022/10/25 16:27:10;;;;;;;1.50;1.27;;;;;;;;;;5862700;24;20036;-84
2022/10/25 16:29:38;;;;;;;5.47;1.42;;;;;;;;;;5918836;24;20020;-85
2022/10/25 16:32:09;;;;;;;1.67;1.10;;;;;;;;;;5953525;24;20020;-84
2022/10/25 16:34:41;;;;;;;3.22;0.80;;;;;;;;;;5916789;24;20029;-85
2022/10/25 16:37:12;;;;;;;1.38;0.80;;;;;;;;;;5929768;24;20024;-84
2022/10/25 16:39:47;;;;;;;3.10;1.45;;;;;;;;;;5988835;23;20019;-84
2022/10/25 16:42:43;;;;;;;5.07;1.88;;;;;;;;;;5987625;23;20019;-85
2022/10/25 16:45:17;;;;;;;2.60;0.80;;;;;;;;;;6013075;23;20026;-86
2022/10/25 16:48:09;;;;;;;5.72;1.50;;;;;;;;;;6037683;23;20068;-84
2022/10/25 16:54:50;;;;;;;;;;;;;;;;;;;;;
2022/10/25 17:19:38;;;;;;;6.78;1.30;;;;;;;;;;6075134;23;20068;31
2022/10/25 17:22:06;;;;;;;0.93;0.93;;;;;;;;;;6066123;23;20015;-82
2022/10/25 17:24:36;;;;;;;1.77;1.67;;;;;;;;;;6100488;23;20010;-82
2022/10/25 17:27:05;;;;;;;3.13;1.77;;;;;;;;;;6067538;23;20026;-83
2022/10/25 17:34:28;;;;;;;2.83;1.17;;;;;;;;;;5986388;23;20117;-83
2022/10/25 17:37:55;;;;;;;4.72;1.10;;;;;;;;;;6020216;23;20032;-83
2022/10/25 17:41:09;;;;;;;2.28;1.13;;;;;;;;;;6054958;23;20043;-83
2022/10/25 17:47:48;;;;;;;1.45;1.35;;;;;;;;;;6040142;23;20651;-84
